Time,TemperatureF,DewpointF,PressureIn,WindDirection,WindDirectionDegrees,WindSpeedMPH,WindSpeedGustMPH,Humidity,HourlyPrecipIn,Conditions,Clouds,dailyrainin,SolarRadiationWatts/m^2,SoftwareType,DateUTC
2013-02-10 00:14:00,9.8,1.0,29.39,West,275,1.0,7.0,66,0.00,,,0.00,0,weatherlink.com 1.10,2013-02-10 07:14:00,
2013-02-10 00:29:00,9.5,0.0,29.40,WNW,296,2.0,7.0,66,0.00,,,0.00,0,weatherlink.com 1.10,2013-02-10 07:29:00,
2013-02-10 00:44:00,9.0,-1.0,29.40,West,280,1.0,11.0,65,0.00,,,0.00,0,weatherlink.com 1.10,2013-02-10 07:44:00,
2013-02-10 00:59:00,9.3,-2.0,29.40,WNW,292,2.0,7.0,60,0.00,,,0.00,0,weatherlink.com 1.10,2013-02-10 07:59:00,
2013-02-10 01:14:00,8.7,-3.0,29.41,WNW,283,2.0,7.0,59,0.00,,,0.00,0,weatherlink.com 1.10,2013-02-10 08:14:00,
2013-02-10 01:29:00,7.6,-4.0,29.41,NNW,339,3.0,6.0,60,0.00,,,0.00,0,weatherlink.com 1.10,2013-02-10 08:29:00,
2013-02-10 01:44:00,8.0,-4.0,29.42,NW,309,3.0,10.0,58,0.00,,,0.00,0,weatherlink.com 1.10,2013-02-10 08:44:00,
2013-02-10 02:00:00,8.1,-5.0,29.43,WNW,298,4.0,7.0,56,0.00,,,0.00,0,weatherlink.com 1.10,2013-02-10 09:00:00,
2013-02-10 02:15:00,7.6,-5.0,29.43,WNW,296,2.0,5.0,56,0.00,,,0.00,0,weatherlink.com 1.10,2013-02-10 09:15:00,
2013-02-10 02:30:00,7.1,-6.0,29.44,WNW,299,2.0,8.0,55,0.00,,,0.00,0,weatherlink.com 1.10,2013-02-10 09:30:00,
2013-02-10 02:45:00,7.1,-7.0,29.45,WNW,282,1.0,5.0,53,0.00,,,0.00,0,weatherlink.com 1.10,2013-02-10 09:45:00,
2013-02-10 03:00:00,6.7,-7.0,29.46,WNW,288,2.0,6.0,54,0.00,,,0.00,0,weatherlink.com 1.10,2013-02-10 10:00:00,
2013-02-10 03:15:00,6.2,-6.0,29.46,NNW,343,3.0,3.0,57,0.00,,,0.00,0,weatherlink.com 1.10,2013-02-10 10:15:00,
2013-02-10 03:30:00,5.6,-6.0,29.46,NNW,327,1.0,3.0,58,0.00,,,0.00,0,weatherlink.com 1.10,2013-02-10 10:30:00,
2013-02-10 03:45:00,5.2,-7.0,29.47,WNW,293,1.0,2.0,58,0.00,,,0.00,0,weatherlink.com 1.10,2013-02-10 10:45:00,
2013-02-10 04:00:00,4.8,-7.0,29.46,WNW,289,2.0,3.0,59,0.00,,,0.00,0,weatherlink.com 1.10,2013-02-10 11:00:00,
2013-02-10 04:15:00,5.5,-6.0,29.47,NW,318,2.0,6.0,59,0.00,,,0.00,0,weatherlink.com 1.10,2013-02-10 11:15:00,
2013-02-10 04:30:00,6.2,-6.0,29.48,WNW,292,2.0,4.0,58,0.00,,,0.00,0,weatherlink.com 1.10,2013-02-10 11:30:00,
2013-02-10 04:45:00,6.5,-6.0,29.50,WNW,296,1.0,7.0,57,0.00,,,0.00,0,weatherlink.com 1.10,2013-02-10 11:45:00,
2013-02-10 05:00:00,6.4,-6.0,29.51,WNW,295,4.0,7.0,57,0.00,,,0.00,0,weatherlink.com 1.10,2013-02-10 12:00:00,
2013-02-10 05:15:00,6.3,-6.0,29.51,WNW,292,2.0,10.0,58,0.00,,,0.00,0,weatherlink.com 1.10,2013-02-10 12:15:00,
2013-02-10 05:31:00,6.3,-6.0,29.52,NW,317,3.0,8.0,58,0.00,,,0.00,0,weatherlink.com 1.10,2013-02-10 12:31:00,
2013-02-10 05:46:00,6.5,-6.0,29.52,NW,319,5.0,13.0,58,0.00,,,0.00,0,weatherlink.com 1.10,2013-02-10 12:46:00,
2013-02-10 06:01:00,6.7,-6.0,29.52,West,280,2.0,9.0,57,0.00,,,0.00,0,weatherlink.com 1.10,2013-02-10 13:01:00,
2013-02-10 06:16:00,6.5,-6.0,29.53,WNW,298,3.0,10.0,57,0.00,,,0.00,0,weatherlink.com 1.10,2013-02-10 13:16:00,
2013-02-10 06:31:00,6.3,-6.0,29.54,WNW,292,2.0,5.0,57,0.00,,,0.00,0,weatherlink.com 1.10,2013-02-10 13:31:00,
2013-02-10 06:46:00,6.2,-6.0,29.55,NW,311,1.0,12.0,58,0.00,,,0.00,0,weatherlink.com 1.10,2013-02-10 13:46:00,
2013-02-10 07:01:00,5.6,-6.0,29.56,NW,309,1.0,3.0,59,0.00,,,0.00,5,weatherlink.com 1.10,2013-02-10 14:01:00,
2013-02-10 07:16:00,5.0,-6.0,29.58,WNW,289,2.0,2.0,61,0.00,,,0.00,16,weatherlink.com 1.10,2013-02-10 14:16:00,
2013-02-10 07:31:00,5.8,-5.0,29.59,WNW,296,4.0,4.0,60,0.00,,,0.00,47,weatherlink.com 1.10,2013-02-10 14:31:00,
2013-02-10 07:46:00,6.9,-5.0,29.60,West,279,2.0,8.0,58,0.00,,,0.00,95,weatherlink.com 1.10,2013-02-10 14:46:00,
2013-02-10 08:01:00,8.4,-4.0,29.61,WNW,294,3.0,7.0,56,0.00,,,0.00,149,weatherlink.com 1.10,2013-02-10 15:01:00,
2013-02-10 08:16:00,9.8,-4.0,29.62,WNW,294,3.0,8.0,54,0.00,,,0.00,195,weatherlink.com 1.10,2013-02-10 15:16:00,
2013-02-10 08:31:00,11.0,-3.0,29.64,WNW,298,2.0,5.0,53,0.00,,,0.00,241,weatherlink.com 1.10,2013-02-10 15:31:00,
2013-02-10 08:46:00,12.6,-3.0,29.64,WNW,292,3.0,6.0,50,0.00,,,0.00,290,weatherlink.com 1.10,2013-02-10 15:46:00,
2013-02-10 09:02:00,13.8,-2.0,29.66,West,261,5.0,5.0,49,0.00,,,0.00,339,weatherlink.com 1.10,2013-02-10 16:02:00,
2013-02-10 09:17:00,15.2,-2.0,29.67,WNW,300,1.0,5.0,47,0.00,,,0.00,348,weatherlink.com 1.10,2013-02-10 16:17:00,
2013-02-10 09:32:00,16.3,-2.0,29.68,WNW,299,1.0,4.0,45,0.00,,,0.00,418,weatherlink.com 1.10,2013-02-10 16:32:00,
2013-02-10 09:47:00,17.5,-1.0,29.68,NW,313,2.0,5.0,44,0.00,,,0.00,424,weatherlink.com 1.10,2013-02-10 16:47:00,
2013-02-10 10:02:00,18.2,-1.0,29.69,NW,313,2.0,5.0,43,0.00,,,0.00,504,weatherlink.com 1.10,2013-02-10 17:02:00,
2013-02-10 10:17:00,19.0,-2.0,29.71,WNW,290,2.0,5.0,40,0.00,,,0.00,547,weatherlink.com 1.10,2013-02-10 17:17:00,
2013-02-10 10:32:00,20.1,-1.0,29.72,WNW,302,1.0,6.0,39,0.00,,,0.00,582,weatherlink.com 1.10,2013-02-10 17:32:00,
2013-02-10 10:47:00,20.8,-2.0,29.73,NNW,341,3.0,6.0,37,0.00,,,0.00,619,weatherlink.com 1.10,2013-02-10 17:47:00,
2013-02-10 11:02:00,21.8,-1.0,29.73,NNW,338,0.0,6.0,37,0.00,,,0.00,659,weatherlink.com 1.10,2013-02-10 18:02:00,
2013-02-10 11:17:00,23.4,-1.0,29.73,NW,311,4.0,6.0,35,0.00,,,0.00,710,weatherlink.com 1.10,2013-02-10 18:17:00,
2013-02-10 11:32:00,23.7,-2.0,29.74,NW,305,1.0,4.0,32,0.00,,,0.00,793,weatherlink.com 1.10,2013-02-10 18:32:00,
2013-02-10 11:47:00,21.8,-2.0,29.73,NE,42,1.0,6.0,36,0.00,,,0.00,258,weatherlink.com 1.10,2013-02-10 18:47:00,
2013-02-10 12:02:00,21.8,-1.0,29.73,NW,317,2.0,8.0,37,0.00,,,0.00,272,weatherlink.com 1.10,2013-02-10 19:02:00,
2013-02-10 12:18:00,23.7,1.0,29.73,West,279,1.0,11.0,38,0.00,,,0.00,786,weatherlink.com 1.10,2013-02-10 19:18:00,
2013-02-10 12:33:00,23.4,1.0,29.72,WNW,293,2.0,12.0,37,0.00,,,0.00,745,weatherlink.com 1.10,2013-02-10 19:33:00,
2013-02-10 12:48:00,23.5,0.0,29.72,NNW,329,4.0,11.0,36,0.00,,,0.00,721,weatherlink.com 1.10,2013-02-10 19:48:00,
2013-02-10 13:03:00,23.6,1.0,29.72,SSE,158,1.0,8.0,37,0.00,,,0.00,707,weatherlink.com 1.10,2013-02-10 20:03:00,
2013-02-10 13:18:00,23.6,1.0,29.72,West,281,2.0,7.0,37,0.00,,,0.00,698,weatherlink.com 1.10,2013-02-10 20:18:00,
2013-02-10 13:33:00,23.3,-1.0,29.72,WSW,256,10.0,10.0,34,0.00,,,0.00,155,weatherlink.com 1.10,2013-02-10 20:33:00,
2013-02-10 13:48:00,20.1,2.0,29.72,NW,314,1.0,7.0,45,0.00,,,0.00,128,weatherlink.com 1.10,2013-02-10 20:48:00,
2013-02-10 14:03:00,19.9,5.0,29.72,WNW,296,2.0,3.0,53,0.00,,,0.00,773,weatherlink.com 1.10,2013-02-10 21:03:00,
2013-02-10 14:18:00,22.4,4.0,29.72,North,355,0.0,5.0,45,0.00,,,0.00,749,weatherlink.com 1.10,2013-02-10 21:18:00,
2013-02-10 14:33:00,19.9,2.0,29.72,East,88,1.0,6.0,46,0.00,,,0.00,188,weatherlink.com 1.10,2013-02-10 21:33:00,
2013-02-10 14:48:00,19.3,-1.0,29.73,SSE,155,3.0,8.0,42,0.00,,,0.00,162,weatherlink.com 1.10,2013-02-10 21:48:00,
2013-02-10 15:03:00,19.2,-3.0,29.73,SW,217,1.0,9.0,38,0.00,,,0.00,151,weatherlink.com 1.10,2013-02-10 22:03:00,
2013-02-10 15:18:00,18.6,-4.0,29.74,SW,220,2.0,4.0,37,0.00,,,0.00,183,weatherlink.com 1.10,2013-02-10 22:18:00,
2013-02-10 15:34:00,18.5,-7.0,29.74,West,277,1.0,10.0,32,0.00,,,0.00,111,weatherlink.com 1.10,2013-02-10 22:34:00,
2013-02-10 15:49:00,19.3,-5.0,29.75,NW,317,0.0,2.0,34,0.00,,,0.00,65,weatherlink.com 1.10,2013-02-10 22:49:00,
2013-02-10 16:04:00,19.0,0.0,29.76,East,84,1.0,8.0,44,0.00,,,0.00,49,weatherlink.com 1.10,2013-02-10 23:04:00,
2013-02-10 16:19:00,16.5,3.0,29.76,SSE,148,7.0,11.0,55,0.00,,,0.00,42,weatherlink.com 1.10,2013-02-10 23:19:00,
2013-02-10 16:34:00,15.2,4.0,29.76,ESE,102,9.0,15.0,62,0.00,,,0.00,33,weatherlink.com 1.10,2013-02-10 23:34:00,
2013-02-10 16:49:00,14.6,5.0,29.77,ESE,119,5.0,14.0,66,0.00,,,0.00,25,weatherlink.com 1.10,2013-02-10 23:49:00,
2013-02-10 17:04:00,14.2,5.0,29.78,ESE,102,7.0,12.0,68,0.00,,,0.00,25,weatherlink.com 1.10,2013-02-11 00:04:00,
2013-02-10 17:19:00,13.4,7.0,29.78,ESE,119,9.0,11.0,74,0.00,,,0.00,9,weatherlink.com 1.10,2013-02-11 00:19:00,
2013-02-10 17:34:00,13.0,8.0,29.79,East,100,9.0,13.0,79,0.00,,,0.00,0,weatherlink.com 1.10,2013-02-11 00:34:00,
2013-02-10 17:49:00,12.5,7.0,29.80,ESE,119,9.0,14.0,78,0.00,,,0.00,0,weatherlink.com 1.10,2013-02-11 00:49:00,
2013-02-10 18:04:00,11.9,6.0,29.81,ESE,117,12.0,17.0,77,0.00,,,0.00,0,weatherlink.com 1.10,2013-02-11 01:04:00,
2013-02-10 18:19:00,11.3,6.0,29.82,ESE,115,12.0,18.0,78,0.00,,,0.00,0,weatherlink.com 1.10,2013-02-11 01:19:00,
2013-02-10 18:34:00,11.0,6.0,29.83,ESE,117,7.0,15.0,79,0.00,,,0.00,0,weatherlink.com 1.10,2013-02-11 01:34:00,
2013-02-10 18:49:00,10.9,6.0,29.83,SSE,157,11.0,18.0,81,0.00,,,0.00,0,weatherlink.com 1.10,2013-02-11 01:49:00,
2013-02-10 19:05:00,11.0,7.0,29.83,East,92,10.0,18.0,82,0.00,,,0.00,0,weatherlink.com 1.10,2013-02-11 02:05:00,
2013-02-10 19:20:00,11.2,7.0,29.83,SE,136,11.0,17.0,83,0.00,,,0.00,0,weatherlink.com 1.10,2013-02-11 02:20:00,
2013-02-10 19:35:00,11.2,7.0,29.84,SE,139,9.0,17.0,83,0.00,,,0.00,0,weatherlink.com 1.10,2013-02-11 02:35:00,
2013-02-10 19:50:00,11.3,7.0,29.84,SE,124,8.0,16.0,82,0.00,,,0.00,0,weatherlink.com 1.10,2013-02-11 02:50:00,
2013-02-10 20:05:00,11.4,7.0,29.84,SSE,148,4.0,15.0,82,0.00,,,0.00,0,weatherlink.com 1.10,2013-02-11 03:05:00,
2013-02-10 20:20:00,11.2,7.0,29.84,ESE,111,11.0,17.0,83,0.00,,,0.00,0,weatherlink.com 1.10,2013-02-11 03:20:00,
2013-02-10 20:35:00,11.3,7.0,29.84,ESE,109,9.0,16.0,82,0.00,,,0.00,0,weatherlink.com 1.10,2013-02-11 03:35:00,
2013-02-10 20:50:00,11.4,7.0,29.85,SE,130,7.0,17.0,82,0.00,,,0.00,0,weatherlink.com 1.10,2013-02-11 03:50:00,
2013-02-10 21:05:00,11.2,7.0,29.85,ESE,118,10.0,17.0,82,0.00,,,0.00,0,weatherlink.com 1.10,2013-02-11 04:05:00,
2013-02-10 21:20:00,11.0,7.0,29.86,SSE,150,18.0,19.0,82,0.00,,,0.00,0,weatherlink.com 1.10,2013-02-11 04:20:00,
2013-02-10 21:35:00,10.7,7.0,29.85,SE,141,12.0,22.0,83,0.00,,,0.00,0,weatherlink.com 1.10,2013-02-11 04:35:00,
2013-02-10 21:50:00,10.3,6.0,29.85,SE,129,11.0,18.0,83,0.00,,,0.00,0,weatherlink.com 1.10,2013-02-11 04:50:00,
2013-02-10 22:05:00,10.3,6.0,29.85,ESE,117,12.0,20.0,83,0.00,,,0.00,0,weatherlink.com 1.10,2013-02-11 05:05:00,
2013-02-10 22:20:00,10.1,6.0,29.85,ESE,108,12.0,22.0,83,0.00,,,0.00,0,weatherlink.com 1.10,2013-02-11 05:20:00,
2013-02-10 22:36:00,9.8,6.0,29.86,SE,141,16.0,18.0,83,0.00,,,0.00,0,weatherlink.com 1.10,2013-02-11 05:36:00,
2013-02-10 22:51:00,9.2,5.0,29.86,ESE,107,11.0,23.0,83,0.00,,,0.00,0,weatherlink.com 1.10,2013-02-11 05:51:00,
2013-02-10 23:06:00,8.8,5.0,29.86,East,98,11.0,24.0,83,0.00,,,0.00,0,weatherlink.com 1.10,2013-02-11 06:06:00,
2013-02-10 23:21:00,8.4,4.0,29.87,East,94,11.0,20.0,83,0.00,,,0.00,0,weatherlink.com 1.10,2013-02-11 06:21:00,
2013-02-10 23:36:00,7.8,4.0,29.88,SE,128,12.0,19.0,83,0.00,,,0.00,0,weatherlink.com 1.10,2013-02-11 06:36:00,
2013-02-10 23:51:00,7.6,4.0,29.88,SSE,153,14.0,22.0,83,0.00,,,0.00,0,weatherlink.com 1.10,2013-02-11 06:51:00,